Latest Coastal Weather Observations for Warrnambool

IDV60701

Issued at 8:01 pm EST Wednesday 27 May 2015 (issued every 10 minutes, with the page automatically refreshed every 10 minutes)

About coastal observations | Map of coastal stations | Coastal observations for VIC | Marine services | Other Formats
Station Details ID: 090186 Name: WARRNAMBOOL AIRPORT NDB Lat: -38.29 Lon: 142.45 Height: 70.8 m
Data from the previous 72 hours. | See also: Recent months at Warrnambool
Date/Time
EST
Temp

°C
Wind Pressure Rain
since 9am
mm
Weather Cloud Vis
km
Sea
Height
m
Swell
Dir
 
Speed
knots
Gust
knots
hPa Trend Height
m
Period
s
Dir
27/08:00pm 12.8 N 10 14 1016.7 - 0.0 - - 10 - - - -
27/07:30pm 13.1 N 9 11 1016.5 - 0.0 - - 10 - - - -
27/07:00pm 14.2 NNW 10 13 1016.5 - 0.0 - Partly cloudy 10 - - - -
27/06:30pm 14.6 N 9 12 1016.4 - 0.0 - Partly cloudy 10 - - - -
27/06:00pm 15.0 NNW 11 14 1016.3 - 0.0 - Mostly cloudy 10 - - - -
27/05:30pm 15.7 NNW 8 9 1016.1 - 0.0 - Partly cloudy 10 - - - -
27/05:00pm 16.4 NNW 13 20 1016.0 - 0.0 - Partly cloudy 10 - - - -
27/04:30pm 16.4 NNW 14 18 1015.9 - 0.0 - Cloudy 10 - - - -
27/04:00pm 16.5 NNW 12 18 1016.1 - 0.0 - Partly cloudy 10 - - - -
27/03:30pm 17.9 NNW 15 20 1015.9 - 0.0 - Partly cloudy 10 - - - -
27/03:00pm 17.8 NNW 14 18 1015.9 - 0.0 - Partly cloudy 10 - - - -
27/02:30pm 17.7 NW 16 20 1016.0 - 0.0 - - 10 - - - -
27/02:00pm 17.5 NW 14 18 1016.2 - 0.0 - - 10 - - - -
27/01:30pm 16.9 NW 16 21 1016.5 - 0.0 - - 10 - - - -
27/01:12pm 17.0 NW 18 23 1016.7 - 0.0 - Partly cloudy 10 - - - -
27/01:00pm 16.9 NW 15 23 1016.8 - 0.0 - Partly cloudy 5 - - - -
27/12:58pm 16.6 NW 14 23 1016.8 - 0.0 - Partly cloudy 5 - - - -
27/12:30pm 17.2 NW 16 21 1017.1 - 0.0 - - 10 - - - -
27/12:00pm 17.1 NNW 13 17 1017.5 - 0.0 - - 10 - - - -
27/11:30am 16.6 NNW 14 18 1018.0 - 0.0 - - 10 - - - -
27/11:00am 15.7 NNW 15 18 1018.2 - 0.0 - - 10 - - - -
27/10:00am 15.0 N 12 17 1018.5 - 0.0 - - 10 - - - -
27/09:30am 13.9 N 12 18 1018.3 - 0.0 - - 10 - - - -
27/09:00am 12.8 N 11 15 1018.4 - 0.2 - Partly cloudy 10 - - - -
27/08:30am 11.9 N 12 15 1018.3 - 0.2 - Cloudy 10 - - - -
27/08:00am 11.3 N 11 14 1018.2 - 0.2 - Partly cloudy 10 - - - -
27/07:30am 10.9 N 10 12 1018.0 - 0.2 - Cloudy 10 - - - -
27/07:00am 9.7 N 9 11 1017.8 - 0.2 - Partly cloudy 10 - - - -
27/06:30am 8.9 N 9 11 1017.7 - 0.2 - - 10 - - - -
27/06:00am 9.3 N 9 11 1017.8 - 0.2 - - 10 - - - -
27/05:30am 10.1 N 11 14 1017.8 - 0.2 - - 10 - - - -
27/05:00am 10.7 N 10 13 1018.0 - 0.2 - - 10 - - - -
27/04:30am 11.5 N 11 13 1018.1 - 0.2 - Partly cloudy 10 - - - -
27/04:00am 11.8 NNE 11 14 1018.1 - 0.2 - Partly cloudy 10 - - - -
27/03:30am 12.0 NNE 11 14 1018.5 - 0.2 - Partly cloudy 10 - - - -
27/03:00am 12.2 N 11 15 1019.1 - 0.2 - Cloudy 10 - - - -
27/02:30am 12.0 N 10 13 1019.2 - 0.2 - Partly cloudy 10 - - - -
27/02:00am 11.6 NNE 10 13 1019.4 - 0.2 - Partly cloudy 10 - - - -
27/01:30am 11.9 N 10 13 1019.7 - 0.2 - Partly cloudy 10 - - - -
27/01:00am 11.9 N 9 12 1019.9 - 0.2 - Partly cloudy 10 - - - -
27/12:30am 11.7 N 8 11 1020.4 - 0.2 - Cloudy 10 - - - -
27/12:00am 11.7 NNE 10 12 1020.6 - 0.2 Rain Mostly cloudy 10 - - - -
 
Date/Time
EST
Temp

°C
Wind Pressure Rain
since 9am
mm
Weather Cloud Vis
km
Sea
Height
m
Swell
Dir
 
Speed
knots
Gust
knots
hPa Trend Height
m
Period
s
Dir
26/11:30pm 11.5 NNE 11 14 1020.8 - 0.2 - Partly cloudy 10 - - - -
26/11:00pm 11.6 NNE 11 16 1020.9 - 0.2 - Partly cloudy 10 - - - -
26/10:30pm 11.5 N 10 14 1021.5 - 0.0 - Cloudy 10 - - - -
26/10:00pm 11.7 NNE 10 13 1021.9 - 0.0 - Cloudy 10 - - - -
26/09:30pm 11.5 NNE 9 11 1021.8 - 0.0 - Partly cloudy 10 - - - -
26/09:00pm 11.3 NNE 8 10 1022.1 - 0.0 - Cloudy 10 - - - -
26/08:30pm 11.0 NNE 7 10 1022.4 - 0.0 - Partly cloudy 10 - - - -
26/08:00pm 10.8 NE 6 7 1022.5 - 0.0 - - 10 - - - -
26/07:30pm 10.9 ENE 5 7 1022.6 - 0.0 - Cloudy 10 - - - -
26/07:00pm 11.3 ENE 6 8 1022.7 - 0.0 - Cloudy 10 - - - -
26/06:30pm 11.6 ENE 6 9 1022.8 - 0.0 - Partly cloudy 10 - - - -
26/06:00pm 11.8 ENE 5 7 1023.0 - 0.0 - Mostly cloudy 10 - - - -
26/05:30pm 12.5 ENE 6 7 1022.9 - 0.0 - - 10 - - - -
26/05:00pm 13.2 E 4 4 1023.1 - 0.0 - - 10 - - - -
26/04:30pm 13.9 ENE 4 8 1023.2 - 0.0 - - 10 - - - -
26/04:00pm 15.0 ENE 6 8 1023.4 - 0.0 - - 10 - - - -
26/03:30pm 15.0 NE 8 11 1023.6 - 0.0 - Partly cloudy 10 - - - -
26/03:00pm 15.7 NE 7 9 1023.9 - 0.0 - Mostly clear 10 - - - -
26/02:30pm 15.7 ENE 6 8 1024.2 - 0.0 - - 10 - - - -
26/02:00pm 15.5 NE 7 10 1024.7 - 0.0 - - 10 - - - -
26/01:30pm 15.3 NE 7 10 1025.1 - 0.0 - - 10 - - - -
26/01:18pm 14.9 NE 8 10 1025.3 - 0.0 - Partly cloudy 10 - - - -
26/01:00pm 14.3 NNE 9 11 1025.6 - 0.0 - Partly cloudy 4 - - - -
26/12:58pm 14.5 NNE 9 11 1025.6 - 0.0 - Partly cloudy 5 - - - -
26/12:30pm 13.6 NE 7 9 1026.1 - 0.0 - Cloudy 10 - - - -
26/12:00pm 13.1 NE 8 10 1026.7 - 0.0 - Cloudy 10 - - - -
26/11:30am 12.2 NNE 6 9 1027.5 - 0.0 - Cloudy 10 - - - -
26/11:00am 10.8 NNE 7 8 1028.0 - 0.0 - Cloudy 10 - - - -
26/10:51am 10.2 NNE 7 9 1028.1 - 0.0 - Cloudy 7 - - - -
26/10:33am 9.7 NNE 8 10 1028.2 - 0.0 - Cloudy 5 - - - -
26/10:30am 9.4 NNE 7 10 1028.2 - 0.0 - Cloudy 8 - - - -
26/10:00am 8.4 NNE 7 10 1028.1 - 0.0 - Cloudy 10 - - - -
26/09:39am 7.6 NNE 8 9 1028.3 - 0.0 - Cloudy 10 - - - -
26/09:30am 7.4 NNE 8 11 1028.2 - 0.0 - Partly cloudy 6 - - - -
26/09:23am 7.1 NNE 8 9 1028.3 - 0.0 - Partly cloudy 5 - - - -
26/09:00am 6.7 NE 6 7 1028.5 - 0.0 - Cloudy 10 - - - -
26/08:30am 5.7 NNE 8 9 1028.5 - 0.0 - Partly cloudy 10 - - - -
26/08:00am 5.5 NNE 9 10 1028.5 - 0.0 - Partly cloudy 10 - - - -
26/07:30am 4.8 NNE 6 8 1028.6 - 0.0 - Partly cloudy 10 - - - -
26/07:00am 5.3 N 5 7 1028.3 - 0.0 - - 10 - - - -
26/06:30am 4.5 NNE 9 11 1028.1 - 0.0 - - 10 - - - -
26/06:00am 4.0 NNE 6 7 1028.1 - 0.0 - Cloudy 10 - - - -
26/05:30am 4.3 NNE 7 8 1028.1 - 0.0 - - 10 - - - -
26/05:00am 3.0 N 5 6 1028.2 - 0.0 - - 10 - - - -
26/04:30am 3.7 N 6 7 1028.2 - 0.0 - - 10 - - - -
26/04:00am 3.4 NNE 5 7 1028.3 - 0.0 - - 10 - - - -
26/03:30am 4.1 N 7 7 1028.4 - 0.0 - - 10 - - - -
26/03:00am 4.0 N 6 7 1028.5 - 0.0 - - 10 - - - -
26/02:30am 4.5 N 4 6 1028.8 - 0.0 - - 10 - - - -
26/02:00am 4.6 N 6 8 1028.8 - 0.0 - - 10 - - - -
26/01:30am 4.1 N 6 7 1028.7 - 0.0 - - 10 - - - -
26/01:00am 4.8 N 6 7 1028.8 - 0.0 - - 10 - - - -
26/12:30am 5.7 N 7 8 1029.1 - 0.0 - - 10 - - - -
26/12:00am 5.6 N 8 8 1029.1 - 0.0 - - 7 - - - -
 
Date/Time
EST
Temp

°C
Wind Pressure Rain
since 9am
mm
Weather Cloud Vis
km
Sea
Height
m
Swell
Dir
 
Speed
knots
Gust
knots
hPa Trend Height
m
Period
s
Dir
25/11:30pm 6.4 NNE 5 6 1028.9 - 0.0 - - 10 - - - -
25/11:13pm 6.2 NNE 6 6 1029.0 - 0.0 - - 10 - - - -
25/11:00pm 6.2 N 4 6 1029.1 - 0.0 - - 2 - - - -
25/10:56pm 6.2 N 4 5 1029.2 - 0.0 - - 1 - - - -
25/10:46pm 6.7 NNE 6 6 1029.2 - 0.0 - - 0.8 - - - -
25/10:30pm 6.3 NNE 6 7 1029.3 - 0.0 - - 2 - - - -
25/10:07pm 6.5 NNE 6 7 1029.5 - 0.0 - - 1 - - - -
25/10:00pm 7.3 NNE 5 6 1029.4 - 0.0 - - 0.7 - - - -
25/09:30pm 6.7 NNE 5 6 1029.6 - 0.0 - - 0.7 - - - -
25/09:21pm 6.5 NNE 5 5 1029.6 - 0.0 - - 0.9 - - - -
25/09:02pm 6.5 NNE 5 5 1029.6 - 0.0 - - 1 - - - -
25/09:00pm 6.3 NNE 5 5 1029.6 - 0.0 - - 0.5 - - - -
25/08:59pm 6.3 NNE 5 5 1029.6 - 0.0 - - 0.9 - - - -
25/08:30pm 6.8 ENE 3 4 1029.4 - 0.0 - - 5 - - - -
25/08:28pm 7.0 ENE 3 4 1029.4 - 0.0 - - 5 - - - -
25/08:00pm 7.2 E 3 4 1029.6 - 0.0 - - 9 - - - -
25/07:51pm 7.6 E 3 4 1029.5 - 0.0 - - 10 - - - -
25/07:30pm 7.7 ENE 3 4 1029.4 - 0.0 - - 4 - - - -
25/07:15pm 8.5 E 3 3 1029.2 - 0.0 - - 5 - - - -
25/07:00pm 9.2 CALM 0 3 1029.3 - 0.0 - - 7 - - - -
25/06:30pm 10.0 CALM 0 0 1029.0 - 0.0 - - 10 - - - -
25/06:00pm 10.6 CALM 0 0 1028.8 - 0.0 - - 10 - - - -
25/05:30pm 11.8 SSE 3 3 1028.5 - 0.0 - - 10 - - - -
25/05:00pm 13.2 S 5 5 1028.2 - 0.0 - - 10 - - - -
25/04:30pm 15.4 SW 4 5 1028.2 - 0.0 - - 10 - - - -
25/04:00pm 17.1 SW 1 4 1028.1 - 0.0 - - 10 - - - -
25/03:30pm 17.0 W 4 6 1028.1 - 0.0 - - 10 - - - -
25/03:19pm 17.1 W 3 5 1028.1 - 0.0 - - - - - - -
25/03:18pm 16.9 W 4 5 1028.1 - 0.0 - - - - - - -
25/03:00pm 17.0 WNW 4 6 1028.1 - 0.0 - - 0.4 - - - -
25/02:30pm 17.1 WNW 4 5 1028.2 - 0.0 - - 0.3 - - - -
25/02:07pm 17.4 WNW 4 6 1028.2 - 0.0 - - 0.8 - - - -
25/02:04pm 17.6 NW 4 6 1028.3 - 0.0 - - 0.9 - - - -
25/02:00pm 17.4 NW 4 6 1028.3 - 0.0 - - 3 - - - -
25/01:30pm 16.6 WNW 5 8 1028.6 - 0.0 - - 10 - - - -
25/01:00pm 16.6 W 6 10 1029.0 - 0.0 - - 10 - - - -
25/12:30pm 16.6 NW 6 11 1029.4 - 0.0 - - 10 - - - -
25/12:00pm 15.8 NW 8 10 1029.8 - 0.0 - - 10 - - - -
25/11:30am 15.3 N 6 8 1030.3 - 0.0 - - 10 - - - -
25/11:00am 14.4 N 6 8 1030.5 - 0.0 - - 10 - - - -
25/10:30am 12.7 N 7 8 1030.6 - 0.0 - - 10 - - - -
25/10:00am 11.3 N 7 8 1030.5 - 0.0 - - 10 - - - -
25/09:30am 9.7 NNE 7 9 1030.5 - 0.0 - - 10 - - - -
25/09:00am 8.8 NNE 5 6 1030.7 - 0.0 - - 10 - - - -
25/08:30am 6.9 NNE 6 7 1030.8 - 0.0 - - 10 - - - -
25/08:00am 4.8 NNE 6 7 1030.5 - 0.0 - - 10 - - - -
25/07:30am 5.4 N 7 8 1030.4 - 0.0 - - 10 - - - -
25/07:00am 5.7 NNE 8 10 1030.0 - 0.0 - - 10 - - - -
25/06:30am 5.8 N 6 8 1030.0 - 0.0 - - 10 - - - -
25/06:00am 6.5 N 8 9 1029.7 - 0.0 - Cloudy 10 - - - -
25/05:30am 6.5 N 6 7 1029.6 - 0.0 - - 10 - - - -
25/05:00am 6.7 NNE 7 9 1029.5 - 0.0 - - 10 - - - -
25/04:30am 6.6 NNE 7 8 1029.5 - 0.0 - - 10 - - - -
25/04:00am 6.3 NNE 7 8 1029.4 - 0.0 - - 10 - - - -
25/03:30am 6.0 NNE 4 5 1029.3 - 0.0 - - 10 - - - -
25/03:00am 5.8 NE 5 6 1029.3 - 0.0 - Cloudy 10 - - - -
25/02:30am 5.7 NNE 5 6 1029.4 - 0.0 - - 10 - - - -
25/02:00am 5.7 NNE 6 7 1029.4 - 0.0 - - 10 - - - -
25/01:30am 5.9 NNE 7 8 1029.3 - 0.0 - - 10 - - - -
25/01:00am 5.9 N 6 7 1029.4 - 0.0 - - 10 - - - -
25/12:30am 6.8 N 6 8 1029.7 - 0.0 - - 10 - - - -
25/12:00am 6.8 NNE 7 8 1029.6 - 0.0 - Mostly cloudy 10 - - - -
 
Date/Time
EST
Temp

°C
Wind Pressure Rain
since 9am
mm
Weather Cloud Vis
km
Sea
Height
m
Swell
Dir
 
Speed
knots
Gust
knots
hPa Trend Height
m
Period
s
Dir
24/11:30pm 6.5 NNE 6 7 1030.0 - 0.0 - - 10 - - - -
24/11:00pm 6.8 N 5 6 1030.0 - 0.0 - - 10 - - - -
24/10:30pm 7.0 NNE 6 7 1030.0 - 0.0 - - 10 - - - -
24/10:00pm 7.0 N 6 7 1030.1 - 0.0 - - 10 - - - -
24/09:30pm 7.2 N 6 7 1029.9 - 0.0 - - 10 - - - -
24/09:00pm 6.9 N 5 7 1030.0 - 0.0 - Cloudy 10 - - - -
24/08:30pm 6.8 NNE 5 6 1030.1 - 0.0 - - 10 - - - -

Other Formats:

Comma delimited format used in spreadsheet applications
http://www.bom.gov.au/fwo/IDV60701/IDV60701.94837.axf

JavaScript Object Notation format (JSON) in row-major order
http://www.bom.gov.au/fwo/IDV60701/IDV60701.94837.json